| time (UTC) | temp C | wind direction | speed KPH | gust KPH | rain 1hr cm | rain 24hr cm | rain mn cm | humidity % | barometer mb |
| 20260906075858 | 17 | 288 | 11.3 | 16.1 | 0.00 | 0.00 | 0.00 | ||
| 20260906075456 | 17 | 296 | 14.5 | 22.5 | 0.00 | 0.00 | 0.00 | ||
| 20260906075055 | 17 | 301 | 9.7 | 16.1 | 0.00 | 0.00 | 0.00 | ||
| 20260906074645 | 18 | 310 | 9.7 | 20.9 | 0.00 | 0.00 | 0.00 | ||
| 20260906074244 | 17 | 315 | 12.9 | 17.7 | 0.00 | 0.00 | 0.00 | ||
| 20260906073843 | 17 | 310 | 11.3 | 16.1 | 0.00 | 0.00 | 0.00 | ||
| 20260906073442 | 17 | 306 | 8.0 | 14.5 | 0.00 | 0.00 | 0.00 | ||
| 20260906073039 | 16 | 303 | 9.7 | 16.1 | 0.00 | 0.00 | 0.00 | ||
| 20260906072638 | 16 | 299 | 9.7 | 16.1 | 0.00 | 0.00 | 0.00 | ||
| 20260906072236 | 17 | 314 | 8.0 | 14.5 | 0.00 | 0.00 | 0.00 | ||
| 20260906071835 | 17 | 285 | 8.0 | 16.1 | 0.00 | 0.00 | 0.00 | ||
| 20260906071434 | 17 | 300 | 11.3 | 16.1 | 0.00 | 0.00 | 0.00 | ||
| 20260906071031 | 16 | 294 | 11.3 | 19.3 | 0.00 | 0.00 | 0.00 | ||
| 20260906070623 | 17 | 282 | 12.9 | 19.3 | 0.00 | 0.00 | 0.00 | ||
| 20260906070221 | 16 | 299 | 8.0 | 14.5 | 0.00 | 0.00 | 0.00 | ||
| 20260906065820 | 16 | 293 | 9.7 | 19.3 | 0.00 | 0.00 | 0.00 | ||
| 20260906065418 | 16 | 294 | 11.3 | 14.5 | 0.00 | 0.00 | 0.00 | ||
| 20260906065016 | 17 | 291 | 6.4 | 11.3 | 0.00 | 0.00 | 0.00 | ||
| 20260906064615 | 17 | 279 | 8.0 | 12.9 | 0.00 | 0.00 | 0.00 | ||
| 20260906064213 | 17 | 277 | 11.3 | 16.1 | 0.00 | 0.00 | 0.00 | ||
| 20260906063811 | 17 | 288 | 14.5 | 19.3 | 0.00 | 0.00 | 0.00 | ||
| 20260906063410 | 17 | 293 | 9.7 | 16.1 | 0.00 | 0.00 | 0.00 | ||
| 20260906063008 | 16 | 279 | 14.5 | 22.5 | 0.00 | 0.00 | 0.00 | ||
| 20260906062600 | 17 | 276 | 11.3 | 22.5 | 0.00 | 0.00 | 0.00 | ||
| 20260906062158 | 17 | 288 | 8.0 | 14.5 | 0.00 | 0.00 | 0.00 | ||
| 20260906061756 | 17 | 275 | 6.4 | 11.3 | 0.00 | 0.00 | 0.00 | ||
| 20260906061355 | 17 | 283 | 8.0 | 12.9 | 0.00 | 0.00 | 0.00 | ||
| 20260906060954 | 16 | 259 | 6.4 | 12.9 | 0.00 | 0.00 | 0.00 | ||
| 20260906060553 | 16 | 270 | 6.4 | 12.9 | 0.00 | 0.00 | 0.00 | ||
| 20260906055749 | 16 | 276 | 8.0 | 12.9 | 0.00 | 0.00 | 0.00 | ||
| 20260906055348 | 15 | 270 | 9.7 | 12.9 | 0.00 | 0.00 | 0.00 | ||
| 20260906054946 | 15 | 269 | 11.3 | 14.5 | 0.00 | 0.00 | 0.00 | ||
| 20260906054537 | 16 | 255 | 8.0 | 14.5 | 0.00 | 0.00 | 0.00 | ||
| 20260906054135 | 16 | 252 | 6.4 | 9.7 | 0.00 | 0.00 | 0.00 | ||
| 20260906053734 | 16 | 268 | 8.0 | 14.5 | 0.00 | 0.00 | 0.00 | ||
| 20260906053333 | 17 | 255 | 6.4 | 11.3 | 0.00 | 0.00 | 0.00 | ||
| 20260906052930 | 17 | 246 | 6.4 | 11.3 | 0.00 | 0.00 | 0.00 | ||
| 20260906052529 | 16 | 248 | 4.8 | 8.0 | 0.00 | 0.00 | 0.00 | ||
| 20260906052127 | 15 | 270 | 0.0 | 3.2 | 0.00 | 0.00 | 0.00 | ||
| 20260906051726 | 16 | 272 | 3.2 | 3.2 | 0.00 | 0.00 | 0.00 | ||
| 20260906051324 | 16 | 292 | 0.0 | 3.2 | 0.00 | 0.00 | 0.00 | ||
| 20260906050922 | 16 | 292 | 0.0 | 3.2 | 0.00 | 0.00 | 0.00 | ||
| 20260906050514 | 15 | 292 | 0.0 | 3.2 | 0.00 | 0.00 | 0.00 | ||
| 20260906050113 | 13 | 292 | 0.0 | 0.0 | 0.00 | 0.00 | 0.00 | ||
| 20260906045711 | 14 | 292 | 0.0 | 0.0 | 0.00 | 0.00 | 0.00 | ||
| 20260906045309 | 14 | 292 | 0.0 | 0.0 | 0.00 | 0.00 | 0.00 | ||
| 20260906044908 | 14 | 270 | 0.0 | 0.0 | 0.00 | 0.00 | 0.00 | ||
| 20260906044507 | 14 | 270 | 0.0 | 3.2 | 0.00 | 0.00 | 0.00 | ||
| 20260906044105 | 14 | 270 | 0.0 | 0.0 | 0.00 | 0.00 | 0.00 | ||
| 20260906043703 | 15 | 270 | 0.0 | 1.6 | 0.00 | 0.00 | 0.00 | ||
| 20260906043302 | 15 | 270 | 0.0 | 0.0 | 0.00 | 0.00 | 0.00 | ||
| 20260906042900 | 17 | 270 | 0.0 | 3.2 | 0.00 | 0.00 | 0.00 | ||
| 20260906042452 | 15 | 292 | 4.8 | 8.0 | 0.00 | 0.00 | 0.00 | ||
| 20260906042049 | 14 | 270 | 1.6 | 4.8 | 0.00 | 0.00 | 0.00 | ||
| 20260906041648 | 15 | 270 | 3.2 | 4.8 | 0.00 | 0.00 | 0.00 | ||
| 20260906041247 | 15 | 270 | 3.2 | 6.4 | 0.00 | 0.00 | 0.00 | ||
| 20260906040845 | 15 | 270 | 4.8 | 6.4 | 0.00 | 0.00 | 0.00 | ||
| 20260906040443 | 14 | 270 | 3.2 | 8.0 | 0.00 | 0.00 | 0.00 | ||
| 20260906040041 | 15 | 270 | 3.2 | 4.8 | 0.00 | 0.00 | 0.00 | ||
| 20260906035640 | 15 | 271 | 4.8 | 8.0 | 0.00 | 0.00 | 0.00 | ||
| 20260906035239 | 15 | 283 | 4.8 | 6.4 | 0.00 | 0.00 | 0.00 | ||
| 20260906034837 | 15 | 282 | 6.4 | 9.7 | 0.00 | 0.00 | 0.00 | ||
| 20260906034428 | 15 | 273 | 6.4 | 9.7 | 0.00 | 0.00 | 0.00 | ||
| 20260906034026 | 15 | 284 | 6.4 | 11.3 | 0.00 | 0.00 | 0.00 | ||
| 20260906033625 | 15 | 275 | 3.2 | 6.4 | 0.00 | 0.00 | 0.00 | ||
| 20260906033224 | 15 | 284 | 4.8 | 9.7 | 0.00 | 0.00 | 0.00 | ||
| 20260906032821 | 16 | 272 | 6.4 | 11.3 | 0.00 | 0.00 | 0.00 | ||
| 20260906032419 | 16 | 277 | 6.4 | 9.7 | 0.00 | 0.00 | 0.00 | ||
| 20260906032017 | 16 | 282 | 4.8 | 9.7 | 0.00 | 0.00 | 0.00 | ||
| 20260906031616 | 16 | 272 | 6.4 | 14.5 | 0.00 | 0.00 | 0.00 | ||
| 20260906031213 | 16 | 273 | 9.7 | 12.9 | 0.00 | 0.00 | 0.00 | ||
| 20260906030812 | 15 | 283 | 8.0 | 16.1 | 0.00 | 0.00 | 0.00 | ||
| 20260906030404 | 15 | 284 | 9.7 | 14.5 | 0.00 | 0.00 | 0.00 | ||
| 20260906030002 | 15 | 288 | 8.0 | 9.7 | 0.00 | 0.00 | 0.00 | ||
| 20260906025600 | 15 | 292 | 11.3 | 19.3 | 0.00 | 0.00 | 0.00 | ||
| 20260906025159 | 15 | 282 | 9.7 | 16.1 | 0.00 | 0.00 | 0.00 | ||
| 20260906024757 | 15 | 291 | 8.0 | 12.9 | 0.00 | 0.00 | 0.00 | ||
| 20260906024356 | 15 | 287 | 8.0 | 14.5 | 0.00 | 0.00 | 0.00 | ||
| 20260906023953 | 15 | 278 | 11.3 | 19.3 | 0.00 | 0.00 | 0.00 | ||
| 20260906023551 | 16 | 272 | 4.8 | 11.3 | 0.00 | 0.00 | 0.00 | ||
| 20260906023150 | 15 | 276 | 6.4 | 12.9 | 0.00 | 0.00 | 0.00 | ||
| 20260906022749 | 15 | 271 | 8.0 | 14.5 | 0.00 | 0.00 | 0.00 | ||
| 20260906022341 | 15 | 275 | 8.0 | 14.5 | 0.00 | 0.00 | 0.00 | ||
| 20260906021938 | 15 | 282 | 9.7 | 17.7 | 0.00 | 0.00 | 0.00 | ||
| 20260906021537 | 15 | 277 | 9.7 | 16.1 | 0.00 | 0.00 | 0.00 | ||
| 20260906021136 | 16 | 270 | 6.4 | 11.3 | 0.00 | 0.00 | 0.00 | ||
| 20260906020734 | 16 | 271 | 8.0 | 12.9 | 0.00 | 0.00 | 0.00 | ||
| 20260906020332 | 15 | 271 | 6.4 | 11.3 | 0.00 | 0.00 | 0.00 | ||
| 20260906015930 | 15 | 269 | 8.0 | 14.5 | 0.00 | 0.00 | 0.00 | ||
| 20260906015529 | 16 | 273 | 8.0 | 16.1 | 0.00 | 0.00 | 0.00 | ||
| 20260906015128 | 15 | 291 | 6.4 | 12.9 | 0.00 | 0.00 | 0.00 | ||
| 20260906014725 | 15 | 278 | 6.4 | 12.9 | 0.00 | 0.00 | 0.00 | ||
| 20260906014317 | 15 | 287 | 8.0 | 12.9 | 0.00 | 0.00 | 0.00 | ||
| 20260906013915 | 15 | 278 | 11.3 | 17.7 | 0.00 | 0.00 | 0.00 | ||
| 20260906013514 | 15 | 273 | 8.0 | 14.5 | 0.00 | 0.00 | 0.00 | ||
| 20260906013113 | 15 | 272 | 9.7 | 16.1 | 0.00 | 0.00 | 0.00 | ||
| 20260906012710 | 15 | 271 | 9.7 | 14.5 | 0.00 | 0.00 | 0.00 | ||
| 20260906012309 | 16 | 269 | 11.3 | 19.3 | 0.00 | 0.00 | 0.00 | ||
| 20260906011907 | 15 | 272 | 9.7 | 14.5 | 0.00 | 0.00 | 0.00 | ||
| 20260906011506 | 15 | 257 | 6.4 | 11.3 | 0.00 | 0.00 | 0.00 | ||
| 20260906011104 | 16 | 262 | 8.0 | 11.3 | 0.00 | 0.00 | 0.00 | ||
| 20260906010702 | 17 | 256 | 6.4 | 9.7 | 0.00 | 0.00 | 0.00 | ||
| 20260906010254 | 16 | 255 | 6.4 | 11.3 | 0.00 | 0.00 | 0.00 | ||
| 20260906005852 | 17 | 250 | 6.4 | 14.5 | 0.00 | 0.00 | 0.00 | ||
| 20260906005450 | 18 | 227 | 4.8 | 8.0 | 0.00 | 0.00 | 0.00 | ||
| 20260906005049 | 17 | 228 | 4.8 | 8.0 | 0.00 | 0.00 | 0.00 | ||
| 20260906004648 | 17 | 231 | 6.4 | 9.7 | 0.00 | 0.00 | 0.00 | ||
| 20260906004247 | 18 | 231 | 4.8 | 8.0 | 0.00 | 0.00 | 0.00 | ||
| 20260906003844 | 18 | 234 | 4.8 | 8.0 | 0.00 | 0.00 | 0.00 | ||
| 20260906003442 | 17 | 225 | 3.2 | 4.8 | 0.00 | 0.00 | 0.00 | ||
| 20260906002639 | 17 | 225 | 3.2 | 6.4 | 0.00 | 0.00 | 0.00 | ||
| 20260906002231 | 18 | 225 | 3.2 | 11.3 | 0.00 | 0.00 | 0.00 | ||
| 20260906001828 | 17 | 225 | 1.6 | 4.8 | 0.00 | 0.00 | 0.00 | ||
| 20260906001427 | 18 | 225 | 3.2 | 6.4 | 0.00 | 0.00 | 0.00 | ||
| 20260906001026 | 18 | 248 | 3.2 | 4.8 | 0.00 | 0.00 | 0.00 | ||
| 20260906000625 | 18 | 248 | 3.2 | 4.8 | 0.00 | 0.00 | 0.00 | ||
| 20260906000303 | 18 | 248 | 4.8 | 6.4 | 0.00 | 0.00 | 0.00 | ||
| 20260906000222 | 18 | 248 | 4.8 | 6.4 | 0.00 | 0.00 | 0.00 | ||
| 20260905235821 | 17 | 248 | 3.2 | 6.4 | 0.00 | 0.00 | 0.00 | ||
| 20260905235420 | 17 | 253 | 3.2 | 4.8 | 0.00 | 0.00 | 0.00 | ||
| 20260905235019 | 17 | 247 | 8.0 | 12.9 | 0.00 | 0.00 | 0.00 | ||
| 20260905234616 | 17 | 256 | 6.4 | 9.7 | 0.00 | 0.00 | 0.00 | ||
| 20260905234208 | 17 | 253 | 4.8 | 8.0 | 0.00 | 0.00 | 0.00 | ||
| 20260905233405 | 15 | 288 | 6.4 | 12.9 | 0.00 | 0.00 | 0.00 | ||
| 20260905233003 | 15 | 269 | 9.7 | 16.1 | 0.00 | 0.00 | 0.00 | ||
| 20260905232601 | 15 | 289 | 9.7 | 16.1 | 0.00 | 0.00 | 0.00 | ||
| 20260905232200 | 16 | 290 | 8.0 | 11.3 | 0.00 | 0.00 | 0.00 | ||
| 20260905231758 | 16 | 298 | 8.0 | 12.9 | 0.00 | 0.00 | 0.00 | ||
| 20260905231357 | 16 | 291 | 8.0 | 14.5 | 0.00 | 0.00 | 0.00 | ||
| 20260905230955 | 16 | 301 | 6.4 | 11.3 | 0.00 | 0.00 | 0.00 | ||
| 20260905230553 | 16 | 303 | 8.0 | 14.5 | 0.00 | 0.00 | 0.00 | ||
| 20260905230145 | 16 | 290 | 9.7 | 14.5 | 0.00 | 0.00 | 0.00 | ||
| 20260905225743 | 16 | 298 | 6.4 | 11.3 | 0.00 | 0.00 | 0.00 | ||
| 20260905225341 | 16 | 281 | 8.0 | 12.9 | 0.00 | 0.00 | 0.00 | ||
| 20260905224940 | 16 | 301 | 6.4 | 14.5 | 0.00 | 0.00 | 0.00 | ||
| 20260905224538 | 16 | 306 | 6.4 | 14.5 | 0.00 | 0.00 | 0.00 | ||
| 20260905224137 | 16 | 294 | 6.4 | 11.3 | 0.00 | 0.00 | 0.00 | ||
| 20260905223734 | 16 | 299 | 6.4 | 14.5 | 0.00 | 0.00 | 0.00 | ||
| 20260905223333 | 16 | 292 | 9.7 | 17.7 | 0.00 | 0.00 | 0.00 | ||
| 20260905223032 | 16 | 302 | 9.7 | 19.3 | 0.00 | 0.00 | 0.00 | ||
| 20260905222932 | 16 | 302 | 9.7 | 19.3 | 0.00 | 0.00 | 0.00 | ||
| 20260905222531 | 16 | 301 | 9.7 | 14.5 | 0.00 | 0.00 | 0.00 | ||
| 20260905222121 | 16 | 299 | 8.0 | 14.5 | 0.00 | 0.00 | 0.00 | ||
| 20260905221719 | 16 | 303 | 6.4 | 11.3 | 0.00 | 0.00 | 0.00 | ||
| 20260905221319 | 16 | 308 | 8.0 | 14.5 | 0.00 | 0.00 | 0.00 | ||
| 20260905220918 | 17 | 315 | 4.8 | 9.7 | 0.00 | 0.00 | 0.00 | ||
| 20260905220516 | 16 | 298 | 6.4 | 14.5 | 0.00 | 0.00 | 0.00 | ||
| 20260905220114 | 16 | 333 | 8.0 | 19.3 | 0.00 | 0.00 | 0.00 | ||
| 20260905215712 | 16 | 322 | 11.3 | 29.0 | 0.00 | 0.00 | 0.00 | ||
| 20260905215311 | 16 | 328 | 14.5 | 22.5 | 0.00 | 0.00 | 0.00 | ||
| 20260905214910 | 17 | 323 | 9.7 | 17.7 | 0.00 | 0.00 | 0.00 | ||
| 20260905214507 | 17 | 319 | 9.7 | 20.9 | 0.00 | 0.00 | 0.00 | ||
| 20260905214059 | 17 | 324 | 11.3 | 17.7 | 0.00 | 0.00 | 0.00 | ||
| 20260905213657 | 17 | 320 | 12.9 | 20.9 | 0.00 | 0.00 | 0.00 | ||
| 20260905213256 | 18 | 314 | 11.3 | 22.5 | 0.00 | 0.00 | 0.00 | ||
| 20260905212854 | 18 | 282 | 9.7 | 16.1 | 0.00 | 0.00 | 0.00 | ||
| 20260905212452 | 18 | 275 | 9.7 | 17.7 | 0.00 | 0.00 | 0.00 | ||
| 20260905212051 | 18 | 275 | 12.9 | 22.5 | 0.00 | 0.00 | 0.00 | ||
| 20260905211649 | 18 | 267 | 12.9 | 25.7 | 0.00 | 0.00 | 0.00 | ||
| 20260905211247 | 18 | 268 | 12.9 | 17.7 | 0.00 | 0.00 | 0.00 | ||
| 20260905210846 | 18 | 265 | 11.3 | 14.5 | 0.00 | 0.00 | 0.00 | ||
| 20260905210444 | 18 | 272 | 11.3 | 16.1 | 0.00 | 0.00 | 0.00 | ||
| 20260905210036 | 18 | 271 | 11.3 | 17.7 | 0.00 | 0.00 | 0.00 | ||
| 20260905205635 | 18 | 265 | 9.7 | 12.9 | 0.00 | 0.00 | 0.00 | ||
| 20260905205232 | 18 | 271 | 9.7 | 14.5 | 0.00 | 0.00 | 0.00 | ||
| 20260905204831 | 18 | 268 | 9.7 | 12.9 | 0.00 | 0.00 | 0.00 | ||
| 20260905204429 | 18 | 281 | 11.3 | 19.3 | 0.00 | 0.00 | 0.00 | ||
| 20260905204028 | 18 | 268 | 11.3 | 16.1 | 0.00 | 0.00 | 0.00 | ||
| 20260905203625 | 18 | 275 | 11.3 | 17.7 | 0.00 | 0.00 | 0.00 | ||
| 20260905203224 | 18 | 266 | 11.3 | 16.1 | 0.00 | 0.00 | 0.00 | ||
| 20260905202823 | 18 | 276 | 11.3 | 17.7 | 0.00 | 0.00 | 0.00 | ||
| 20260905202421 | 18 | 268 | 9.7 | 14.5 | 0.00 | 0.00 | 0.00 | ||
| 20260905202012 | 18 | 271 | 9.7 | 14.5 | 0.00 | 0.00 | 0.00 | ||
| 20260905201610 | 18 | 269 | 11.3 | 16.1 | 0.00 | 0.00 | 0.00 | ||
| 20260905201209 | 18 | 265 | 9.7 | 14.5 | 0.00 | 0.00 | 0.00 | ||
| 20260905200808 | 19 | 260 | 11.3 | 14.5 | 0.00 | 0.00 | 0.00 | ||
| 20260905200405 | 19 | 258 | 9.7 | 12.9 | 0.00 | 0.00 | 0.00 | ||
| 20260905200003 | 20 | 252 | 9.7 | 16.1 | 0.00 | 0.00 | 0.00 | ||
| 20260905195601 | 20 | 268 | 8.0 | 12.9 | 0.00 | 0.00 | 0.00 | ||
| 20260905195201 | 20 | 260 | 11.3 | 12.9 | 0.00 | 0.00 | 0.00 | ||
| 20260905194759 | 20 | 250 | 9.7 | 16.1 | 0.00 | 0.00 | 0.00 | ||
| 20260905194356 | 20 | 250 | 11.3 | 14.5 | 0.00 | 0.00 | 0.00 | ||
| 20260905193948 | 20 | 251 | 9.7 | 14.5 | 0.00 | 0.00 | 0.00 | ||
| 20260905193546 | 20 | 259 | 9.7 | 14.5 | 0.00 | 0.00 | 0.00 | ||
| 20260905193145 | 20 | 255 | 9.7 | 12.9 | 0.00 | 0.00 | 0.00 | ||
| 20260905192743 | 20 | 251 | 9.7 | 16.1 | 0.00 | 0.00 | 0.00 | ||
| 20260905192341 | 20 | 258 | 8.0 | 14.5 | 0.00 | 0.00 | 0.00 | ||
| 20260905191940 | 20 | 251 | 8.0 | 14.5 | 0.00 | 0.00 | 0.00 | ||
| 20260905191538 | 20 | 262 | 9.7 | 14.5 | 0.00 | 0.00 | 0.00 | ||
| 20260905191136 | 20 | 261 | 9.7 | 14.5 | 0.00 | 0.00 | 0.00 | ||
| 20260905190735 | 20 | 261 | 8.0 | 12.9 | 0.00 | 0.00 | 0.00 | ||
| 20260905190333 | 20 | 262 | 11.3 | 16.1 | 0.00 | 0.00 | 0.00 | ||
| 20260905185925 | 20 | 260 | 9.7 | 16.1 | 0.00 | 0.00 | 0.00 | ||
| 20260905185522 | 20 | 255 | 8.0 | 14.5 | 0.00 | 0.00 | 0.00 | ||
| 20260905185121 | 20 | 262 | 11.3 | 14.5 | 0.00 | 0.00 | 0.00 | ||
| 20260905184720 | 20 | 269 | 11.3 | 16.1 | 0.00 | 0.00 | 0.00 | ||
| 20260905184318 | 20 | 272 | 9.7 | 14.5 | 0.00 | 0.00 | 0.00 | ||
| 20260905183917 | 20 | 270 | 12.9 | 16.1 | 0.00 | 0.00 | 0.00 | ||
| 20260905183514 | 20 | 278 | 12.9 | 19.3 | 0.00 | 0.00 | 0.00 | ||
| 20260905183113 | 20 | 272 | 11.3 | 16.1 | 0.00 | 0.00 | 0.00 | ||
| 20260905182712 | 20 | 277 | 11.3 | 14.5 | 0.00 | 0.00 | 0.00 | ||
| 20260905182310 | 20 | 271 | 9.7 | 16.1 | 0.00 | 0.00 | 0.00 | ||
| 20260905181901 | 20 | 268 | 11.3 | 19.3 | 0.00 | 0.00 | 0.00 | ||
| 20260905181459 | 20 | 277 | 16.1 | 24.1 | 0.00 | 0.00 | 0.00 | ||
| 20260905181059 | 20 | 270 | 16.1 | 22.5 | 0.00 | 0.00 | 0.00 | ||
| 20260905180657 | 20 | 270 | 14.5 | 22.5 | 0.00 | 0.00 | 0.00 | ||
| 20260905180254 | 20 | 269 | 14.5 | 16.1 | 0.00 | 0.00 | 0.00 | ||
| 20260905175853 | 20 | 272 | 14.5 | 22.5 | 0.00 | 0.00 | 0.00 | ||
| 20260905175452 | 20 | 272 | 11.3 | 20.9 | 0.00 | 0.00 | 0.00 | ||
| 20260905175051 | 20 | 268 | 12.9 | 19.3 | 0.00 | 0.00 | 0.00 | ||
| 20260905174649 | 20 | 277 | 11.3 | 16.1 | 0.00 | 0.00 | 0.00 | ||
| 20260905174247 | 20 | 282 | 9.7 | 16.1 | 0.00 | 0.00 | 0.00 | ||
| 20260905173839 | 20 | 274 | 12.9 | 25.7 | 0.00 | 0.00 | 0.00 | ||
| 20260905173437 | 20 | 269 | 14.5 | 19.3 | 0.00 | 0.00 | 0.00 | ||
| 20260905173036 | 20 | 270 | 11.3 | 19.3 | 0.00 | 0.00 | 0.00 | ||
| 20260905172634 | 20 | 271 | 11.3 | 17.7 | 0.00 | 0.00 | 0.00 | ||
| 20260905172232 | 20 | 270 | 12.9 | 19.3 | 0.00 | 0.00 | 0.00 | ||
| 20260905171831 | 20 | 270 | 11.3 | 22.5 | 0.00 | 0.00 | 0.00 | ||
| 20260905171429 | 20 | 277 | 12.9 | 20.9 | 0.00 | 0.00 | 0.00 | ||
| 20260905171027 | 20 | 269 | 11.3 | 16.1 | 0.00 | 0.00 | 0.00 | ||
| 20260905170626 | 21 | 270 | 11.3 | 14.5 | 0.00 | 0.00 | 0.00 | ||
| 20260905170224 | 21 | 272 | 8.0 | 14.5 | 0.00 | 0.00 | 0.00 | ||
| 20260905165816 | 21 | 277 | 12.9 | 19.3 | 0.00 | 0.00 | 0.00 | ||
| 20260905165413 | 21 | 272 | 12.9 | 19.3 | 0.00 | 0.00 | 0.00 | ||
| 20260905165012 | 21 | 283 | 11.3 | 19.3 | 0.00 | 0.00 | 0.00 | ||
| 20260905164611 | 21 | 283 | 12.9 | 16.1 | 0.00 | 0.00 | 0.00 | ||
| 20260905164210 | 21 | 281 | 12.9 | 19.3 | 0.00 | 0.00 | 0.00 | ||
| 20260905163807 | 21 | 279 | 16.1 | 20.9 | 0.00 | 0.00 | 0.00 | ||
| 20260905163406 | 21 | 268 | 12.9 | 16.1 | 0.00 | 0.00 | 0.00 | ||
| 20260905163005 | 22 | 279 | 14.5 | 27.4 | 0.00 | 0.00 | 0.00 | ||
| 20260905162604 | 21 | 271 | 14.5 | 20.9 | 0.00 | 0.00 | 0.00 | ||
| 20260905162202 | 22 | 271 | 19.3 | 27.4 | 0.00 | 0.00 | 0.00 | ||
| 20260905161753 | 22 | 269 | 12.9 | 24.1 | 0.00 | 0.00 | 0.00 | ||
| 20260905161351 | 23 | 269 | 17.7 | 25.7 | 0.00 | 0.00 | 0.00 | ||
| 20260905160950 | 22 | 274 | 17.7 | 25.7 | 0.00 | 0.00 | 0.00 | ||
| 20260905160549 | 22 | 271 | 14.5 | 27.4 | 0.00 | 0.00 | 0.00 | ||
| 20260905160146 | 22 | 266 | 14.5 | 27.4 | 0.00 | 0.00 | 0.00 | ||
| 20260905155745 | 22 | 261 | 16.1 | 22.5 | 0.00 | 0.00 | 0.00 | ||
| 20260905155343 | 22 | 258 | 16.1 | 20.9 | 0.00 | 0.00 | 0.00 | ||
| 20260905154942 | 22 | 254 | 16.1 | 27.4 | 0.00 | 0.00 | 0.00 | ||
| 20260905154540 | 22 | 256 | 16.1 | 25.7 | 0.00 | 0.00 | 0.00 | ||
| 20260905154138 | 22 | 267 | 16.1 | 27.4 | 0.00 | 0.00 | 0.00 | ||
| 20260905153730 | 22 | 276 | 12.9 | 20.9 | 0.00 | 0.00 | 0.00 | ||
| 20260905153328 | 22 | 274 | 17.7 | 25.7 | 0.00 | 0.00 | 0.00 | ||
| 20260905152926 | 22 | 276 | 19.3 | 29.0 | 0.00 | 0.00 | 0.00 | ||
| 20260905152525 | 22 | 255 | 16.1 | 22.5 | 0.00 | 0.00 | 0.00 | ||
| 20260905152123 | 22 | 259 | 17.7 | 27.4 | 0.00 | 0.00 | 0.00 | ||
| 20260905151722 | 22 | 246 | 20.9 | 29.0 | 0.00 | 0.00 | 0.00 | ||
| 20260905151321 | 22 | 251 | 14.5 | 24.1 | 0.00 | 0.00 | 0.00 | ||
| 20260905150918 | 22 | 267 | 22.5 | 46.7 | 0.00 | 0.00 | 0.00 | ||
| 20260905150517 | 22 | 268 | 14.5 | 22.5 | 0.00 | 0.00 | 0.00 | ||
| 20260905150116 | 22 | 271 | 19.3 | 30.6 | 0.00 | 0.00 | 0.00 | ||
| 20260905145708 | 22 | 269 | 20.9 | 30.6 | 0.00 | 0.00 | 0.00 | ||
| 20260905145306 | 22 | 258 | 14.5 | 22.5 | 0.00 | 0.00 | 0.00 | ||
| 20260905144904 | 22 | 265 | 16.1 | 22.5 | 0.00 | 0.00 | 0.00 | ||
| 20260905144503 | 22 | 263 | 17.7 | 30.6 | 0.00 | 0.00 | 0.00 | ||
| 20260905144101 | 23 | 262 | 19.3 | 32.2 | 0.00 | 0.00 | 0.00 | ||
| 20260905143659 | 23 | 256 | 22.5 | 32.2 | 0.00 | 0.00 | 0.00 | ||
| 20260905143257 | 23 | 267 | 19.3 | 29.0 | 0.00 | 0.00 | 0.00 | ||
| 20260905142856 | 23 | 268 | 17.7 | 27.4 | 0.00 | 0.00 | 0.00 | ||
| 20260905142455 | 23 | 277 | 24.1 | 35.4 | 0.00 | 0.00 | 0.00 | ||
| 20260905142052 | 23 | 263 | 12.9 | 19.3 | 0.00 | 0.00 | 0.00 | ||
| 20260905141644 | 23 | 243 | 17.7 | 22.5 | 0.00 | 0.00 | 0.00 | ||
| 20260905141242 | 23 | 255 | 16.1 | 30.6 | 0.00 | 0.00 | 0.00 | ||
| 20260905140841 | 23 | 262 | 16.1 | 22.5 | 0.00 | 0.00 | 0.00 | ||
| 20260905140440 | 23 | 237 | 14.5 | 20.9 | 0.00 | 0.00 | 0.00 | ||
| 20260905140037 | 23 | 241 | 16.1 | 29.0 | 0.00 | 0.00 | 0.00 | ||
| 20260905135636 | 23 | 271 | 17.7 | 25.7 | 0.00 | 0.00 | 0.00 | ||
| 20260905135234 | 23 | 262 | 19.3 | 30.6 | 0.00 | 0.00 | 0.00 | ||
| 20260905134833 | 23 | 238 | 17.7 | 27.4 | 0.00 | 0.00 | 0.00 | ||
| 20260905134431 | 23 | 260 | 16.1 | 25.7 | 0.00 | 0.00 | 0.00 | ||
| 20260905134029 | 23 | 255 | 22.5 | 33.8 | 0.00 | 0.00 | 0.00 | ||
| 20260905133621 | 23 | 275 | 19.3 | 33.8 | 0.00 | 0.00 | 0.00 | ||
| 20260905133219 | 23 | 272 | 11.3 | 20.9 | 0.00 | 0.00 | 0.00 | ||
| 20260905132817 | 22 | 261 | 14.5 | 20.9 | 0.00 | 0.00 | 0.00 | ||
| 20260905132416 | 22 | 262 | 16.1 | 24.1 | 0.00 | 0.00 | 0.00 | ||
| 20260905132014 | 22 | 267 | 19.3 | 25.7 | 0.00 | 0.00 | 0.00 | ||
| 20260905131613 | 23 | 230 | 19.3 | 29.0 | 0.00 | 0.00 | 0.00 | ||
| 20260905131210 | 23 | 240 | 12.9 | 25.7 | 0.00 | 0.00 | 0.00 | ||
| 20260905130809 | 23 | 241 | 11.3 | 17.7 | 0.00 | 0.00 | 0.00 | ||
| 20260905130407 | 23 | 218 | 14.5 | 22.5 | 0.00 | 0.00 | 0.00 | ||
| 20260905130006 | 23 | 226 | 14.5 | 27.4 | 0.00 | 0.00 | 0.00 | ||
| 20260905125646 | 23 | 226 | 14.5 | 24.1 | 0.00 | 0.00 | 0.00 | ||
| 20260905125558 | 23 | 226 | 14.5 | 24.1 | 0.00 | 0.00 | 0.00 | ||
| 20260905125155 | 23 | 261 | 14.5 | 20.9 | 0.00 | 0.00 | 0.00 | ||
| 20260905124353 | 22 | 238 | 16.1 | 22.5 | 0.00 | 0.00 | 0.00 | ||
| 20260905123951 | 22 | 255 | 14.5 | 19.3 | 0.00 | 0.00 | 0.00 | ||
| 20260905123548 | 22 | 244 | 11.3 | 19.3 | 0.00 | 0.00 | 0.00 | ||
| 20260905123146 | 23 | 248 | 17.7 | 29.0 | 0.00 | 0.00 | 0.00 | ||
| 20260905122745 | 23 | 266 | 14.5 | 20.9 | 0.00 | 0.00 | 0.00 | ||
| 20260905122344 | 23 | 233 | 12.9 | 22.5 | 0.00 | 0.00 | 0.00 | ||
| 20260905121941 | 22 | 245 | 14.5 | 25.7 | 0.00 | 0.00 | 0.00 | ||
| 20260905121533 | 22 | 251 | 16.1 | 25.7 | 0.00 | 0.00 | 0.00 | ||
| 20260905121131 | 22 | 230 | 16.1 | 22.5 | 0.00 | 0.00 | 0.00 | ||
| 20260905120730 | 22 | 256 | 12.9 | 20.9 | 0.00 | 0.00 | 0.00 | ||
| 20260905120328 | 22 | 260 | 14.5 | 20.9 | 0.00 | 0.00 | 0.00 | ||
| 20260905115926 | 22 | 227 | 14.5 | 29.0 | 0.00 | 0.00 | 0.00 | ||
| 20260905115525 | 22 | 227 | 16.1 | 25.7 | 0.00 | 0.00 | 0.00 | ||
| 20260905115122 | 22 | 238 | 9.7 | 16.1 | 0.00 | 0.00 | 0.00 | ||
| 20260905114721 | 22 | 241 | 16.1 | 32.2 | 0.00 | 0.00 | 0.00 | ||
| 20260905114319 | 22 | 216 | 11.3 | 19.3 | 0.00 | 0.00 | 0.00 | ||
| 20260905113917 | 22 | 255 | 12.9 | 24.1 | 0.00 | 0.00 | 0.00 | ||
| 20260905113509 | 22 | 213 | 16.1 | 30.6 | 0.00 | 0.00 | 0.00 | ||
| 20260905113107 | 21 | 245 | 16.1 | 22.5 | 0.00 | 0.00 | 0.00 | ||
| 20260905112705 | 21 | 249 | 14.5 | 24.1 | 0.00 | 0.00 | 0.00 | ||
| 20260905112306 | 21 | 245 | 14.5 | 20.9 | 0.00 | 0.00 | 0.00 | ||
| 20260905111902 | 22 | 219 | 11.3 | 25.7 | 0.00 | 0.00 | 0.00 | ||
| 20260905111501 | 21 | 245 | 12.9 | 16.1 | 0.00 | 0.00 | 0.00 | ||
| 20260905111058 | 21 | 241 | 14.5 | 27.4 | 0.00 | 0.00 | 0.00 | ||
| 20260905110657 | 21 | 243 | 12.9 | 19.3 | 0.00 | 0.00 | 0.00 | ||
| 20260905110256 | 22 | 223 | 11.3 | 20.9 | 0.00 | 0.00 | 0.00 | ||
| 20260905105855 | 21 | 219 | 12.9 | 27.4 | 0.00 | 0.00 | 0.00 | ||
| 20260905105445 | 21 | 212 | 14.5 | 22.5 | 0.00 | 0.00 | 0.00 | ||
| 20260905105044 | 21 | 226 | 16.1 | 29.0 | 0.00 | 0.00 | 0.00 | ||
| 20260905104643 | 21 | 246 | 19.3 | 30.6 | 0.00 | 0.00 | 0.00 | ||
| 20260905104242 | 21 | 248 | 16.1 | 19.3 | 0.00 | 0.00 | 0.00 | ||
| 20260905103840 | 21 | 237 | 12.9 | 27.4 | 0.00 | 0.00 | 0.00 | ||
| 20260905103438 | 21 | 246 | 17.7 | 27.4 | 0.00 | 0.00 | 0.00 | ||
| 20260905103036 | 21 | 228 | 12.9 | 16.1 | 0.00 | 0.00 | 0.00 | ||
| 20260905102635 | 21 | 225 | 16.1 | 22.5 | 0.00 | 0.00 | 0.00 | ||
| 20260905102234 | 21 | 249 | 17.7 | 25.7 | 0.00 | 0.00 | 0.00 | ||
| 20260905101831 | 20 | 245 | 19.3 | 29.0 | 0.00 | 0.00 | 0.00 | ||
| 20260905101423 | 21 | 239 | 20.9 | 30.6 | 0.00 | 0.00 | 0.00 | ||
| 20260905101021 | 20 | 220 | 19.3 | 25.7 | 0.00 | 0.00 | 0.00 | ||
| 20260905100620 | 20 | 240 | 16.1 | 22.5 | 0.00 | 0.00 | 0.00 | ||
| 20260905100218 | 21 | 258 | 16.1 | 22.5 | 0.00 | 0.00 | 0.00 | ||
| 20260905095816 | 21 | 219 | 17.7 | 32.2 | 0.00 | 0.00 | 0.00 | ||
| 20260905095415 | 20 | 254 | 19.3 | 27.4 | 0.00 | 0.00 | 0.00 | ||
| 20260905095013 | 20 | 245 | 9.7 | 14.5 | 0.00 | 0.00 | 0.00 | ||
| 20260905094611 | 20 | 230 | 16.1 | 25.7 | 0.00 | 0.00 | 0.00 | ||
| 20260905094210 | 20 | 230 | 17.7 | 27.4 | 0.00 | 0.00 | 0.00 | ||
| 20260905093808 | 20 | 234 | 17.7 | 32.2 | 0.00 | 0.00 | 0.00 | ||
| 20260905093400 | 19 | 254 | 17.7 | 20.9 | 0.00 | 0.00 | 0.00 | ||
| 20260905092958 | 20 | 235 | 17.7 | 27.4 | 0.00 | 0.00 | 0.00 | ||
| 20260905092556 | 20 | 227 | 14.5 | 20.9 | 0.00 | 0.00 | 0.00 | ||
| 20260905092155 | 20 | 225 | 17.7 | 24.1 | 0.00 | 0.00 | 0.00 | ||
| 20260905091754 | 20 | 238 | 12.9 | 24.1 | 0.00 | 0.00 | 0.00 | ||
| 20260905091353 | 20 | 234 | 9.7 | 16.1 | 0.00 | 0.00 | 0.00 | ||
| 20260905090950 | 20 | 242 | 12.9 | 20.9 | 0.00 | 0.00 | 0.00 | ||
| 20260905090549 | 20 | 218 | 17.7 | 30.6 | 0.00 | 0.00 | 0.00 | ||
| 20260905090148 | 20 | 229 | 14.5 | 24.1 | 0.00 | 0.00 | 0.00 | ||
| 20260905085746 | 19 | 225 | 11.3 | 17.7 | 0.00 | 0.00 | 0.00 | ||
| 20260905085337 | 19 | 231 | 17.7 | 35.4 | 0.00 | 0.00 | 0.00 | ||
| 20260905084935 | 19 | 240 | 14.5 | 22.5 | 0.00 | 0.00 | 0.00 | ||
| 20260905084534 | 19 | 249 | 14.5 | 22.5 | 0.00 | 0.00 | 0.00 | ||
| 20260905084133 | 19 | 244 | 11.3 | 20.9 | 0.00 | 0.00 | 0.00 | ||
| 20260905083730 | 19 | 223 | 9.7 | 19.3 | 0.00 | 0.00 | 0.00 | ||
| 20260905083329 | 18 | 211 | 9.7 | 17.7 | 0.00 | 0.00 | 0.00 | ||
| 20260905082927 | 18 | 235 | 11.3 | 17.7 | 0.00 | 0.00 | 0.00 | ||
| 20260905082526 | 18 | 228 | 8.0 | 14.5 | 0.00 | 0.00 | 0.00 | ||
| 20260905082125 | 19 | 209 | 8.0 | 14.5 | 0.00 | 0.00 | 0.00 | ||
| 20260905081722 | 19 | 216 | 6.4 | 12.9 | 0.00 | 0.00 | 0.00 | ||
| 20260905081314 | 18 | 205 | 8.0 | 16.1 | 0.00 | 0.00 | 0.00 | ||
| 20260905080912 | 18 | 215 | 9.7 | 16.1 | 0.00 | 0.00 | 0.00 | ||
| 20260905080511 | 18 | 208 | 9.7 | 14.5 | 0.00 | 0.00 | 0.00 | ||
| 20260905080109 | 18 | 218 | 8.0 | 16.1 | 0.00 | 0.00 | 0.00 |